createdAt,value
2017-11-27T00:01:06.702Z,84.67
2017-11-27T00:02:38.014Z,84.90
2017-11-27T00:04:01.096Z,84.94
2017-11-27T00:05:32.279Z,84.83
2017-11-27T00:06:59.547Z,84.95
2017-11-27T00:08:22.570Z,84.45
2017-11-27T00:09:49.876Z,84.68
2017-11-27T00:11:17.038Z,84.61
2017-11-27T00:12:48.321Z,84.72
2017-11-27T00:14:15.488Z,84.55
2017-11-27T00:15:38.746Z,84.45
2017-11-27T00:17:06.119Z,84.26
2017-11-27T00:18:37.402Z,84.08
2017-11-27T00:20:00.706Z,83.43
2017-11-27T00:21:28.098Z,83.48
2017-11-27T00:22:59.329Z,83.80
2017-11-27T00:24:26.393Z,83.65
2017-11-27T00:25:53.683Z,83.82
2017-11-27T00:27:20.784Z,83.85
2017-11-27T00:28:48.088Z,83.81
2017-11-27T00:30:11.156Z,83.19
2017-11-27T00:31:38.471Z,83.17
2017-11-27T00:33:09.795Z,83.07
2017-11-27T00:34:36.857Z,82.81
2017-11-27T00:35:59.996Z,82.79
2017-11-27T00:37:27.187Z,82.98
2017-11-27T00:38:54.096Z,82.53
2017-11-27T00:40:25.454Z,82.55
2017-11-27T00:41:48.493Z,82.48
2017-11-27T00:43:19.713Z,82.61
2017-11-27T00:44:47.104Z,82.62
2017-11-27T00:46:10.372Z,82.44
2017-11-27T00:47:41.607Z,82.70
2017-11-27T00:49:04.752Z,82.53
2017-11-27T00:50:32.072Z,82.71
2017-11-27T00:51:59.345Z,82.82
2017-11-27T00:53:30.379Z,82.93
2017-11-27T00:54:53.748Z,83.04
2017-11-27T00:56:24.884Z,83.36
2017-11-27T00:57:48.232Z,83.55
2017-11-27T00:59:19.495Z,83.35
2017-11-27T01:00:42.693Z,83.29
2017-11-27T01:02:14.056Z,82.77
2017-11-27T01:03:37.293Z,82.41
2017-11-27T01:05:04.401Z,82.57
2017-11-27T01:06:35.757Z,82.17
2017-11-27T01:07:58.986Z,82.34
2017-11-27T01:09:30.136Z,82.18
2017-11-27T01:10:53.551Z,82.34
2017-11-27T01:12:20.877Z,81.95
2017-11-27T01:13:47.933Z,82.04
2017-11-27T01:15:18.832Z,81.65
2017-11-27T01:16:46.123Z,81.65
2017-11-27T01:18:13.399Z,81.77
2017-11-27T01:19:40.566Z,81.58
2017-11-27T01:21:03.973Z,81.79
2017-11-27T01:22:35.172Z,81.80
2017-11-27T01:23:58.171Z,82.03
2017-11-27T01:25:29.231Z,81.70
2017-11-27T01:26:52.567Z,81.78
2017-11-27T01:28:23.936Z,81.72
2017-11-27T01:29:47.139Z,81.51
2017-11-27T01:31:18.409Z,82.02
2017-11-27T01:32:45.665Z,82.01
2017-11-27T01:34:08.857Z,81.66
2017-11-27T01:35:36.117Z,81.85
2017-11-27T01:37:07.342Z,81.97
2017-11-27T01:38:34.510Z,82.16
2017-11-27T01:39:57.624Z,82.06
2017-11-27T01:41:28.720Z,82.20
2017-11-27T01:42:51.703Z,82.15
2017-11-27T01:44:18.889Z,82.14
2017-11-27T01:45:46.229Z,81.94
2017-11-27T01:47:13.426Z,81.71
2017-11-27T01:48:44.621Z,81.75
2017-11-27T01:50:07.927Z,81.78
2017-11-27T01:51:39.221Z,82.02
2017-11-27T01:53:02.379Z,82.16
2017-11-27T01:54:33.635Z,82.32
2017-11-27T01:55:56.852Z,82.16
2017-11-27T01:57:23.864Z,82.06
2017-11-27T01:58:55.160Z,81.91
2017-11-27T02:00:22.335Z,82.10
2017-11-27T02:01:49.444Z,81.94
2017-11-27T02:03:16.650Z,81.93
2017-11-27T02:04:43.723Z,82.27
2017-11-27T02:06:07.013Z,81.45
2017-11-27T02:07:38.386Z,81.86
2017-11-27T02:09:05.629Z,81.66
2017-11-27T02:10:32.769Z,81.81
2017-11-27T02:11:59.878Z,81.71
2017-11-27T02:13:23.210Z,81.58
2017-11-27T02:14:50.621Z,81.46
2017-11-27T02:16:21.743Z,81.45
2017-11-27T02:17:45.105Z,81.64
2017-11-27T02:19:16.430Z,82.04
2017-11-27T02:20:43.758Z,81.96
2017-11-27T02:22:07.112Z,81.87
2017-11-27T02:23:34.353Z,81.72
2017-11-27T02:25:05.596Z,81.56
2017-11-27T02:26:28.896Z,81.24
2017-11-27T02:27:56.028Z,81.16
2017-11-27T02:29:23.168Z,81.34
2017-11-27T02:30:50.364Z,81.71
2017-11-27T02:32:17.743Z,81.97
2017-11-27T02:33:48.986Z,81.52
2017-11-27T02:35:12.419Z,81.55
2017-11-27T02:36:43.765Z,81.73
2017-11-27T02:38:11.144Z,81.46
2017-11-27T02:39:38.361Z,81.48
2017-11-27T02:41:05.635Z,81.51
2017-11-27T02:42:32.628Z,81.28
2017-11-27T02:43:59.956Z,81.56
2017-11-27T02:45:27.220Z,81.24
2017-11-27T02:46:50.415Z,81.08
2017-11-27T02:48:21.595Z,81.28
2017-11-27T02:49:44.992Z,81.53
2017-11-27T02:51:12.267Z,81.79
2017-11-27T02:52:39.550Z,82.13
2017-11-27T02:54:06.765Z,82.06
2017-11-27T02:55:33.985Z,81.77
2017-11-27T02:57:01.295Z,81.92
2017-11-27T02:58:32.558Z,81.81
2017-11-27T02:59:55.705Z,81.72
2017-11-27T03:01:23.052Z,81.46
2017-11-27T03:02:54.394Z,81.20
2017-11-27T03:04:21.348Z,81.12
2017-11-27T03:05:44.881Z,81.11
2017-11-27T03:07:12.178Z,81.12
2017-11-27T03:08:39.575Z,81.20
2017-11-27T03:10:06.494Z,80.66
2017-11-27T03:11:37.596Z,80.39
2017-11-27T03:13:00.821Z,80.67
2017-11-27T03:14:28.086Z,80.81
2017-11-27T03:15:59.266Z,81.01
2017-11-27T03:17:26.444Z,80.84
2017-11-27T03:18:53.623Z,80.76
2017-11-27T03:20:16.928Z,80.69
2017-11-27T03:21:44.014Z,80.73
2017-11-27T03:23:11.237Z,81.21
2017-11-27T03:24:42.566Z,81.00
2017-11-27T03:26:09.752Z,80.87
2017-11-27T03:27:36.956Z,81.13
2017-11-27T03:29:04.152Z,81.41
2017-11-27T03:30:31.328Z,81.27
2017-11-27T03:31:54.507Z,80.80
2017-11-27T03:33:25.586Z,81.06
2017-11-27T03:34:48.997Z,81.03
2017-11-27T03:36:20.325Z,80.92
2017-11-27T03:37:47.442Z,80.92
2017-11-27T03:39:10.885Z,80.41
2017-11-27T03:40:38.285Z,80.67
2017-11-27T03:42:05.582Z,80.70
2017-11-27T03:43:36.945Z,80.95
2017-11-27T03:45:00.114Z,81.04
2017-11-27T03:46:31.377Z,81.13
2017-11-27T03:47:54.317Z,81.15
2017-11-27T03:49:21.546Z,80.98
2017-11-27T03:50:49.029Z,81.18
2017-11-27T03:52:16.205Z,81.00
2017-11-27T03:53:43.464Z,80.69
2017-11-27T03:55:14.712Z,80.65
2017-11-27T03:56:42.056Z,80.80
2017-11-27T03:58:05.431Z,80.93
2017-11-27T03:59:32.447Z,80.69
2017-11-27T04:00:59.595Z,80.81
2017-11-27T04:02:26.700Z,80.83
2017-11-27T04:03:57.904Z,80.86
2017-11-27T04:05:21.066Z,80.98
2017-11-27T04:06:52.234Z,80.84
2017-11-27T04:08:19.503Z,80.86
2017-11-27T04:09:46.756Z,80.81
2017-11-27T04:11:09.845Z,80.96
2017-11-27T04:12:36.955Z,80.83
2017-11-27T04:14:08.358Z,80.59
2017-11-27T04:15:31.467Z,80.90
2017-11-27T04:17:02.669Z,80.91
2017-11-27T04:18:29.822Z,80.67
2017-11-27T04:19:52.825Z,80.69
2017-11-27T04:21:20.016Z,80.74
2017-11-27T04:22:47.220Z,80.51
2017-11-27T04:24:14.153Z,80.63
2017-11-27T04:25:41.502Z,80.39
2017-11-27T04:27:12.453Z,80.63
2017-11-27T04:28:39.609Z,80.61
2017-11-27T04:30:06.936Z,80.32
2017-11-27T04:31:34.198Z,80.44
2017-11-27T04:32:57.155Z,80.49
2017-11-27T04:34:28.240Z,80.52
2017-11-27T04:35:51.520Z,80.39
2017-11-27T04:37:18.908Z,80.41
2017-11-27T04:38:46.116Z,80.29
2017-11-27T04:40:17.354Z,80.48
2017-11-27T04:41:40.507Z,80.76
2017-11-27T04:43:11.844Z,80.94
2017-11-27T04:44:34.892Z,81.13
2017-11-27T04:46:06.103Z,81.26
2017-11-27T04:47:29.327Z,81.21
2017-11-27T04:48:56.585Z,80.82
2017-11-27T04:50:24.025Z,80.62
2017-11-27T04:51:51.232Z,80.40
2017-11-27T04:53:22.289Z,80.26
2017-11-27T04:54:49.511Z,80.37
2017-11-27T04:56:12.945Z,80.30
2017-11-27T04:57:44.174Z,80.66
2017-11-27T04:59:07.408Z,80.64
2017-11-27T05:00:38.760Z,80.43
2017-11-27T05:02:05.911Z,80.73
2017-11-27T05:03:29.188Z,80.52
2017-11-27T05:04:56.454Z,80.36
2017-11-27T05:06:23.725Z,80.47
2017-11-27T05:07:50.981Z,80.44
2017-11-27T05:09:18.157Z,80.45
2017-11-27T05:10:45.674Z,80.27
2017-11-27T05:12:12.934Z,80.80
2017-11-27T05:13:44.249Z,80.76
2017-11-27T05:15:11.717Z,80.73
2017-11-27T05:16:34.990Z,80.74
2017-11-27T05:18:02.232Z,80.86
2017-11-27T05:19:29.324Z,80.61
2017-11-27T05:20:56.462Z,80.63
2017-11-27T05:22:27.483Z,80.81
2017-11-27T05:23:50.888Z,80.64
2017-11-27T05:25:18.195Z,80.79
2017-11-27T05:26:49.378Z,80.60
2017-11-27T05:28:16.565Z,80.83
2017-11-27T05:29:39.781Z,80.91
2017-11-27T05:31:07.032Z,80.83
2017-11-27T05:32:38.021Z,80.63
2017-11-27T05:34:00.913Z,80.56
2017-11-27T05:35:28.177Z,80.56
2017-11-27T05:36:55.408Z,80.50
2017-11-27T05:38:26.603Z,80.58
2017-11-27T05:39:49.536Z,80.71
2017-11-27T05:41:23.843Z,80.63
2017-11-27T05:42:47.964Z,80.59
2017-11-27T05:44:14.887Z,80.71
2017-11-27T05:45:37.932Z,80.79
2017-11-27T05:47:05.217Z,81.00
2017-11-27T05:48:32.376Z,80.96
2017-11-27T05:50:03.719Z,81.21
2017-11-27T05:51:30.837Z,81.32
2017-11-27T05:52:58.163Z,81.46
2017-11-27T05:54:25.332Z,81.49
2017-11-27T05:55:52.679Z,81.57
2017-11-27T05:57:16.058Z,81.70
2017-11-27T05:58:43.338Z,81.68
2017-11-27T06:00:10.507Z,81.71
2017-11-27T06:01:41.587Z,81.73
2017-11-27T06:03:04.719Z,81.84
2017-11-27T06:04:31.737Z,82.00
2017-11-27T06:06:02.790Z,81.96
2017-11-27T06:07:26.096Z,81.87
2017-11-27T06:08:53.220Z,81.95
2017-11-27T06:10:20.595Z,82.01
2017-11-27T06:11:47.438Z,82.01
2017-11-27T06:13:14.690Z,81.75
2017-11-27T06:14:41.878Z,81.78
2017-11-27T06:16:13.103Z,81.92
2017-11-27T06:17:36.239Z,81.76
2017-11-27T06:19:07.412Z,81.86
2017-11-27T06:20:30.751Z,81.83
2017-11-27T06:22:01.930Z,81.85
2017-11-27T06:23:25.418Z,82.03
2017-11-27T06:24:56.712Z,81.92
2017-11-27T06:26:23.994Z,82.05
2017-11-27T06:27:51.306Z,82.03
2017-11-27T06:29:18.695Z,82.08
2017-11-27T06:30:45.872Z,82.17
2017-11-27T06:32:09.074Z,82.02
2017-11-27T06:33:40.312Z,82.08
2017-11-27T06:35:07.926Z,82.11
2017-11-27T06:36:31.448Z,82.16
2017-11-27T06:37:58.707Z,82.17
2017-11-27T06:39:25.450Z,82.18
2017-11-27T06:40:56.575Z,82.13
2017-11-27T06:42:20.141Z,82.13
2017-11-27T06:43:51.229Z,82.07
2017-11-27T06:45:18.585Z,82.22
2017-11-27T06:46:41.970Z,82.29
2017-11-27T06:48:13.388Z,82.40
2017-11-27T06:49:36.633Z,82.25
2017-11-27T06:51:07.997Z,82.20
2017-11-27T06:52:31.110Z,82.21
2017-11-27T06:53:58.433Z,82.28
2017-11-27T06:55:25.315Z,82.19
2017-11-27T06:56:52.645Z,82.14
2017-11-27T06:58:19.916Z,82.14
2017-11-27T06:59:47.224Z,82.14
2017-11-27T07:01:14.509Z,82.27
2017-11-27T07:02:45.727Z,82.19
2017-11-27T07:04:13.090Z,82.11
2017-11-27T07:05:40.356Z,82.18
2017-11-27T07:07:03.543Z,82.11
2017-11-27T07:08:31.141Z,82.11
2017-11-27T07:09:58.122Z,81.99
2017-11-27T07:11:25.473Z,82.00
2017-11-27T07:12:52.956Z,81.82
2017-11-27T07:14:20.071Z,81.80
2017-11-27T07:15:47.289Z,81.71
2017-11-27T07:17:14.456Z,81.76
2017-11-27T07:18:45.601Z,81.95
2017-11-27T07:20:08.900Z,81.94
2017-11-27T07:21:36.239Z,82.10
2017-11-27T07:23:03.554Z,81.80
2017-11-27T07:24:30.856Z,81.91
2017-11-27T07:25:58.116Z,81.90
2017-11-27T07:27:25.337Z,82.00
2017-11-27T07:28:56.788Z,81.99
2017-11-27T07:30:23.788Z,81.87
2017-11-27T07:31:51.273Z,82.11
2017-11-27T07:33:18.448Z,81.92
2017-11-27T07:34:45.547Z,81.81
2017-11-27T07:36:12.653Z,81.64
2017-11-27T07:37:36.182Z,81.74
2017-11-27T07:39:07.242Z,81.62
2017-11-27T07:40:30.651Z,81.84
2017-11-27T07:41:57.986Z,81.65
2017-11-27T07:43:25.045Z,81.69
2017-11-27T07:44:56.225Z,81.61
2017-11-27T07:46:19.497Z,81.69
2017-11-27T07:47:46.625Z,81.73
2017-11-27T07:49:13.983Z,81.57
2017-11-27T07:50:45.281Z,81.71
2017-11-27T07:52:12.314Z,81.40
2017-11-27T07:53:39.564Z,81.20
2017-11-27T07:55:02.770Z,81.20
2017-11-27T07:56:30.006Z,81.38
2017-11-27T07:57:57.106Z,81.51
2017-11-27T07:59:28.121Z,81.54
2017-11-27T08:00:55.511Z,81.44
2017-11-27T08:02:18.586Z,81.19
2017-11-27T08:03:49.909Z,81.33
2017-11-27T08:05:17.023Z,81.42
2017-11-27T08:06:40.389Z,81.61
2017-11-27T08:08:07.432Z,81.38
2017-11-27T08:09:34.775Z,81.22
2017-11-27T08:11:02.033Z,81.23
2017-11-27T08:12:33.253Z,81.29
2017-11-27T08:13:56.339Z,81.20
2017-11-27T08:15:27.659Z,81.11
2017-11-27T08:16:54.981Z,81.17
2017-11-27T08:18:18.264Z,81.10
2017-11-27T08:19:45.095Z,81.11
2017-11-27T08:21:12.404Z,81.20
2017-11-27T08:22:43.857Z,81.42
2017-11-27T08:24:07.102Z,81.47
2017-11-27T08:25:34.154Z,81.25
2017-11-27T08:27:01.318Z,81.31
2017-11-27T08:28:28.441Z,81.27
2017-11-27T08:29:59.616Z,81.01
2017-11-27T08:31:22.916Z,81.20
2017-11-27T08:32:54.295Z,81.29
2017-11-27T08:34:17.702Z,80.96
2017-11-27T08:35:48.913Z,81.24
2017-11-27T08:37:11.952Z,81.08
2017-11-27T08:38:39.334Z,81.08
2017-11-27T08:40:10.553Z,81.36
2017-11-27T08:41:34.390Z,81.33
2017-11-27T08:43:01.273Z,81.43
2017-11-27T08:44:32.650Z,81.20
2017-11-27T08:45:55.695Z,81.12
2017-11-27T08:47:26.956Z,80.86
2017-11-27T08:48:50.190Z,81.08
2017-11-27T08:50:21.620Z,80.99
2017-11-27T08:51:44.790Z,80.67
2017-11-27T08:53:15.725Z,80.98
2017-11-27T08:54:39.110Z,80.83
2017-11-27T08:56:10.115Z,81.10
2017-11-27T08:57:37.323Z,80.82
2017-11-27T08:59:00.504Z,80.43
2017-11-27T09:00:27.802Z,80.70
2017-11-27T09:01:54.831Z,80.75
2017-11-27T09:03:21.607Z,80.85
2017-11-27T09:04:48.820Z,80.72
2017-11-27T09:06:19.394Z,80.69
2017-11-27T09:07:46.620Z,80.56
2017-11-27T09:09:09.793Z,80.67
2017-11-27T09:10:37.013Z,80.62
2017-11-27T09:12:03.753Z,80.29
2017-11-27T09:13:35.157Z,80.05
2017-11-27T09:15:02.323Z,80.19
2017-11-27T09:16:25.094Z,80.31
2017-11-27T09:17:52.291Z,80.38
2017-11-27T09:19:18.984Z,80.18
2017-11-27T09:20:50.164Z,80.02
2017-11-27T09:22:17.329Z,80.30
2017-11-27T09:23:40.624Z,79.81
2017-11-27T09:25:11.915Z,79.97
2017-11-27T09:26:39.169Z,79.82
2017-11-27T09:28:01.853Z,79.57
2017-11-27T09:29:33.014Z,79.78
2017-11-27T09:31:00.229Z,80.31
2017-11-27T09:32:23.626Z,80.44
2017-11-27T09:33:54.560Z,80.13
2017-11-27T09:35:21.730Z,79.88
2017-11-27T09:36:49.286Z,79.90
2017-11-27T09:38:16.457Z,79.99
2017-11-27T09:39:39.776Z,79.95
2017-11-27T09:41:06.969Z,80.09
2017-11-27T09:42:34.093Z,80.00
2017-11-27T09:44:01.304Z,80.23
2017-11-27T09:45:32.285Z,80.13
2017-11-27T09:46:59.277Z,80.02
2017-11-27T09:48:22.590Z,80.17
2017-11-27T09:49:49.654Z,79.95
2017-11-27T09:51:16.893Z,79.97
2017-11-27T09:52:44.127Z,80.15
2017-11-27T09:54:11.400Z,80.22
2017-11-27T09:55:38.734Z,79.92
2017-11-27T09:57:05.935Z,80.04
2017-11-27T09:58:32.978Z,80.60
2017-11-27T10:00:00.100Z,80.90
2017-11-27T10:01:27.458Z,80.59
2017-11-27T10:02:58.321Z,80.35
2017-11-27T10:04:25.766Z,80.85
2017-11-27T10:05:52.989Z,80.84
2017-11-27T10:07:15.876Z,80.86
2017-11-27T10:08:42.680Z,81.00
2017-11-27T10:10:14.035Z,81.14
2017-11-27T10:11:41.265Z,81.05
2017-11-27T10:13:04.504Z,81.00
2017-11-27T10:14:35.717Z,80.91
2017-11-27T10:15:59.086Z,81.03
2017-11-27T10:17:26.418Z,81.31
2017-11-27T10:18:53.594Z,81.48
2017-11-27T10:20:24.832Z,81.60
2017-11-27T10:21:52.175Z,81.38
2017-11-27T10:23:15.472Z,81.33
2017-11-27T10:24:42.779Z,81.29
2017-11-27T10:26:09.796Z,81.71
2017-11-27T10:27:41.114Z,81.63
2017-11-27T10:29:08.504Z,81.31
2017-11-27T10:30:35.780Z,81.46
2017-11-27T10:31:58.947Z,82.00
2017-11-27T10:33:26.234Z,81.81
2017-11-27T10:34:53.519Z,81.85
2017-11-27T10:36:24.807Z,81.97
2017-11-27T10:37:48.134Z,81.90
2017-11-27T10:39:19.473Z,82.07
2017-11-27T10:40:46.802Z,82.27
2017-11-27T10:42:13.981Z,81.97
2017-11-27T10:43:37.062Z,82.02
2017-11-27T10:45:04.245Z,82.27
2017-11-27T10:46:31.379Z,82.00
2017-11-27T10:47:58.619Z,82.33
2017-11-27T10:49:29.745Z,82.13
2017-11-27T10:50:57.091Z,82.16
2017-11-27T10:52:24.241Z,82.30
2017-11-27T10:53:51.355Z,82.22
2017-11-27T10:55:14.590Z,82.42
2017-11-27T10:56:45.904Z,82.49
2017-11-27T10:58:09.210Z,82.68
2017-11-27T10:59:36.145Z,82.41
2017-11-27T11:01:03.497Z,82.66
2017-11-27T11:02:30.742Z,82.44
2017-11-27T11:04:01.883Z,82.56
2017-11-27T11:05:29.112Z,82.15
2017-11-27T11:06:56.282Z,82.56
2017-11-27T11:08:23.649Z,82.52
2017-11-27T11:09:47.020Z,82.75
2017-11-27T11:11:18.374Z,82.16
2017-11-27T11:12:45.443Z,82.13
2017-11-27T11:14:12.629Z,82.38
2017-11-27T11:15:39.902Z,82.35
2017-11-27T11:17:03.185Z,82.08
2017-11-27T11:18:30.577Z,82.61
2017-11-27T11:20:01.749Z,82.31
2017-11-27T11:21:24.954Z,82.35
2017-11-27T11:22:52.090Z,82.40
2017-11-27T11:24:19.198Z,82.30
2017-11-27T11:25:50.375Z,82.35
2017-11-27T11:27:13.808Z,82.38
2017-11-27T11:28:41.201Z,82.03
2017-11-27T11:30:08.374Z,81.77
2017-11-27T11:31:39.757Z,81.69
2017-11-27T11:33:06.921Z,81.55
2017-11-27T11:34:34.362Z,81.43
2017-11-27T11:35:57.493Z,82.01
2017-11-27T11:37:24.583Z,81.20
2017-11-27T11:38:51.811Z,81.33
2017-11-27T11:40:20.764Z,81.27
2017-11-27T11:41:49.949Z,81.36
2017-11-27T11:43:13.432Z,81.34
2017-11-27T11:44:44.727Z,81.50
2017-11-27T11:46:11.927Z,81.31
2017-11-27T11:47:34.841Z,80.81
2017-11-27T11:49:05.789Z,80.94
2017-11-27T11:50:28.827Z,81.03
2017-11-27T11:51:56.169Z,81.26
2017-11-27T11:53:27.589Z,81.34
2017-11-27T11:54:54.865Z,80.88
2017-11-27T11:56:18.164Z,80.88
2017-11-27T11:57:45.137Z,81.10
2017-11-27T11:59:12.120Z,80.98
2017-11-27T12:00:39.462Z,80.62
2017-11-27T12:02:06.701Z,81.42
2017-11-27T12:03:37.634Z,81.62
2017-11-27T12:05:01.040Z,81.54
2017-11-27T12:06:32.243Z,81.85
2017-11-27T12:07:55.424Z,82.15
2017-11-27T12:09:26.754Z,82.08
2017-11-27T12:10:53.886Z,81.75
2017-11-27T12:12:21.367Z,81.86
2017-11-27T12:13:48.435Z,82.27
2017-11-27T12:15:11.769Z,82.06
2017-11-27T12:16:38.951Z,82.69
2017-11-27T12:18:06.159Z,83.03
2017-11-27T12:19:37.544Z,83.11
2017-11-27T12:21:00.830Z,83.57
2017-11-27T12:22:28.022Z,83.50
2017-11-27T12:23:55.226Z,83.35
2017-11-27T12:25:22.613Z,83.80
2017-11-27T12:26:49.896Z,83.75
2017-11-27T12:28:17.118Z,84.06
2017-11-27T12:29:44.405Z,84.14
2017-11-27T12:31:15.795Z,84.73
2017-11-27T12:32:38.856Z,85.16
2017-11-27T12:34:09.913Z,84.42
2017-11-27T12:35:33.215Z,84.29
2017-11-27T12:37:00.618Z,84.20
2017-11-27T12:38:32.006Z,84.76
2017-11-27T12:39:55.167Z,84.93
2017-11-27T12:41:22.438Z,84.19
2017-11-27T12:42:53.879Z,85.13
2017-11-27T12:44:16.980Z,85.18
2017-11-27T12:45:44.134Z,84.99
2017-11-27T12:47:11.381Z,85.56
2017-11-27T12:48:38.830Z,86.14
2017-11-27T12:50:10.092Z,85.66
2017-11-27T12:51:37.194Z,86.15
2017-11-27T12:53:00.656Z,86.09
2017-11-27T12:54:27.901Z,86.72
2017-11-27T12:55:54.938Z,86.88
2017-11-27T12:57:26.290Z,87.38
2017-11-27T12:58:49.637Z,87.30
2017-11-27T13:00:20.911Z,87.27
2017-11-27T13:01:48.160Z,87.56
2017-11-27T13:03:11.535Z,87.72
2017-11-27T13:04:38.825Z,88.00
2017-11-27T13:06:05.897Z,88.31
2017-11-27T13:07:37.069Z,87.78
2017-11-27T13:09:00.188Z,88.42
2017-11-27T13:10:31.295Z,88.43
2017-11-27T13:11:54.442Z,88.61
2017-11-27T13:13:21.578Z,88.89
2017-11-27T13:14:52.659Z,88.58
2017-11-27T13:16:20.030Z,88.73
2017-11-27T13:17:43.205Z,88.99
2017-11-27T13:19:14.420Z,88.94
2017-11-27T13:20:41.643Z,88.95
2017-11-27T13:22:04.979Z,89.12
2017-11-27T13:23:36.191Z,89.23
2017-11-27T13:24:59.490Z,89.07
2017-11-27T13:26:30.579Z,89.15
2017-11-27T13:27:57.720Z,89.15
2017-11-27T13:29:21.011Z,89.25
2017-11-27T13:30:52.218Z,89.09
2017-11-27T13:32:19.258Z,89.21
2017-11-27T13:33:46.518Z,89.08
2017-11-27T13:35:13.711Z,88.58
2017-11-27T13:36:41.014Z,88.97
2017-11-27T13:38:04.370Z,88.94
2017-11-27T13:39:31.402Z,88.48
2017-11-27T13:41:02.766Z,88.89
2017-11-27T13:42:25.922Z,89.00
2017-11-27T13:43:52.962Z,88.91
2017-11-27T13:45:24.181Z,88.97
2017-11-27T13:46:51.241Z,88.69
2017-11-27T13:48:14.517Z,88.99
2017-11-27T13:49:45.923Z,89.21
2017-11-27T13:51:13.125Z,89.34
2017-11-27T13:52:40.306Z,88.73
2017-11-27T13:54:03.474Z,89.72
2017-11-27T13:55:30.620Z,89.60
2017-11-27T13:57:01.659Z,89.85
2017-11-27T13:58:28.652Z,89.83
2017-11-27T13:59:56.013Z,89.86
2017-11-27T14:01:19.206Z,90.00
2017-11-27T14:02:46.551Z,89.61
2017-11-27T14:04:13.917Z,90.23
2017-11-27T14:05:41.078Z,90.25
2017-11-27T14:07:12.269Z,90.29
2017-11-27T14:08:35.418Z,90.53
2017-11-27T14:10:06.782Z,90.73
2017-11-27T14:11:29.967Z,90.16
2017-11-27T14:13:01.135Z,89.79
2017-11-27T14:14:24.256Z,89.97
2017-11-27T14:15:51.523Z,89.86
2017-11-27T14:17:18.739Z,90.26
2017-11-27T14:18:46.054Z,90.45
2017-11-27T14:20:17.441Z,90.48
2017-11-27T14:21:44.689Z,90.99
2017-11-27T14:23:07.884Z,90.52
2017-11-27T14:24:39.139Z,90.90
2017-11-27T14:26:06.253Z,90.92
2017-11-27T14:27:29.507Z,91.32
2017-11-27T14:28:56.733Z,91.65
2017-11-27T14:30:28.062Z,91.14
2017-11-27T14:31:55.367Z,91.09
2017-11-27T14:33:18.684Z,90.79
2017-11-27T14:34:45.979Z,90.66
2017-11-27T14:36:17.199Z,91.36
2017-11-27T14:37:44.362Z,91.12
2017-11-27T14:39:07.545Z,91.16
2017-11-27T14:40:34.641Z,90.91
2017-11-27T14:42:05.804Z,90.64
2017-11-27T14:43:29.067Z,91.12
2017-11-27T14:45:00.239Z,90.93
2017-11-27T14:46:27.470Z,91.18
2017-11-27T14:47:50.685Z,91.25
2017-11-27T14:49:21.918Z,91.21
2017-11-27T14:50:48.767Z,90.75
2017-11-27T14:52:11.965Z,90.90
2017-11-27T14:53:39.165Z,91.09
2017-11-27T14:55:06.227Z,90.97
2017-11-27T14:56:33.490Z,91.10
2017-11-27T14:58:00.701Z,90.69
2017-11-27T14:59:27.957Z,90.54
2017-11-27T15:00:55.137Z,91.23
2017-11-27T15:02:26.508Z,91.05
2017-11-27T15:03:49.577Z,91.16
2017-11-27T15:05:20.750Z,91.05
2017-11-27T15:06:47.954Z,91.22
2017-11-27T15:08:15.283Z,90.96
2017-11-27T15:09:38.447Z,90.93
2017-11-27T15:11:05.657Z,90.78
2017-11-27T15:12:32.954Z,91.00
2017-11-27T15:14:00.023Z,90.82
2017-11-27T15:15:31.157Z,90.69
2017-11-27T15:16:54.053Z,90.95
2017-11-27T15:18:21.380Z,91.04
2017-11-27T15:19:52.714Z,91.07
2017-11-27T15:21:20.026Z,91.03
2017-11-27T15:22:43.082Z,90.45
2017-11-27T15:24:14.281Z,90.85
2017-11-27T15:25:37.583Z,90.96
2017-11-27T15:27:04.833Z,90.90
2017-11-27T15:28:32.157Z,91.23
2017-11-27T15:30:03.305Z,91.63
2017-11-27T15:31:26.579Z,91.29
2017-11-27T15:32:53.768Z,91.29
2017-11-27T15:34:25.043Z,91.25
2017-11-27T15:35:48.465Z,91.79
2017-11-27T15:37:19.549Z,91.74
2017-11-27T15:38:46.833Z,91.50
2017-11-27T15:40:13.931Z,91.78
2017-11-27T15:41:37.033Z,91.76
2017-11-27T15:43:04.235Z,91.77
2017-11-27T15:44:35.547Z,91.73
2017-11-27T15:45:58.727Z,92.31
2017-11-27T15:47:25.990Z,92.19
2017-11-27T15:48:57.271Z,91.85
2017-11-27T15:50:24.534Z,92.19
2017-11-27T15:51:47.647Z,92.42
2017-11-27T15:53:18.809Z,92.46
2017-11-27T15:54:46.092Z,92.51
2017-11-27T15:56:09.318Z,91.98
2017-11-27T15:57:40.573Z,92.49
2017-11-27T15:59:07.738Z,92.15
2017-11-27T16:00:34.733Z,92.05
2017-11-27T16:02:01.723Z,92.29
2017-11-27T16:03:28.995Z,92.65
2017-11-27T16:04:52.180Z,92.47
2017-11-27T16:06:19.530Z,92.74
2017-11-27T16:07:50.623Z,92.97
2017-11-27T16:09:13.928Z,92.87
2017-11-27T16:10:41.220Z,93.12
2017-11-27T16:12:12.576Z,93.34
2017-11-27T16:13:39.720Z,93.56
2017-11-27T16:15:06.953Z,93.29
2017-11-27T16:16:30.255Z,93.43
2017-11-27T16:18:01.474Z,93.36
2017-11-27T16:19:24.373Z,93.38
2017-11-27T16:20:55.595Z,93.08
2017-11-27T16:22:18.976Z,93.01
2017-11-27T16:23:50.331Z,93.21
2017-11-27T16:25:17.649Z,93.19
2017-11-27T16:26:40.764Z,93.17
2017-11-27T16:28:11.821Z,93.00
2017-11-27T16:29:35.096Z,93.49
2017-11-27T16:31:02.307Z,93.21
2017-11-27T16:32:33.492Z,93.06
2017-11-27T16:33:56.807Z,93.06
2017-11-27T16:35:23.989Z,93.17
2017-11-27T16:36:55.154Z,93.05
2017-11-27T16:38:18.481Z,93.35
2017-11-27T16:39:49.628Z,93.52
2017-11-27T16:41:16.881Z,93.33
2017-11-27T16:42:43.591Z,93.39
2017-11-27T16:44:10.804Z,93.36
2017-11-27T16:45:34.350Z,93.43
2017-11-27T16:47:05.305Z,93.71
2017-11-27T16:48:32.514Z,93.39
2017-11-27T16:49:59.636Z,93.37
2017-11-27T16:51:22.840Z,93.60
2017-11-27T16:52:50.029Z,93.66
2017-11-27T16:54:17.241Z,93.63
2017-11-27T16:55:48.487Z,93.44
2017-11-27T16:57:15.866Z,93.54
2017-11-27T16:58:39.057Z,93.73
2017-11-27T17:00:10.132Z,93.65
2017-11-27T17:01:33.184Z,93.56
2017-11-27T17:03:04.618Z,93.49
2017-11-27T17:04:27.900Z,93.45
2017-11-27T17:05:54.888Z,93.52
2017-11-27T17:07:27.052Z,93.40
2017-11-27T17:08:49.162Z,93.56
2017-11-27T17:10:16.338Z,93.71
2017-11-27T17:11:47.469Z,93.67
2017-11-27T17:13:10.472Z,93.89
2017-11-27T17:14:37.825Z,93.69
2017-11-27T17:16:04.999Z,93.59
2017-11-27T17:17:36.062Z,93.53
2017-11-27T17:19:03.185Z,93.58
2017-11-27T17:20:30.051Z,93.52
2017-11-27T17:21:53.244Z,93.28
2017-11-27T17:23:24.351Z,93.51
2017-11-27T17:24:47.414Z,93.63
2017-11-27T17:26:18.599Z,93.88
2017-11-27T17:27:41.940Z,93.79
2017-11-27T17:29:12.767Z,93.66
2017-11-27T17:30:35.926Z,93.58
2017-11-27T17:32:03.140Z,93.51
2017-11-27T17:33:34.260Z,93.48
2017-11-27T17:35:01.479Z,93.51
2017-11-27T17:36:24.562Z,93.71
2017-11-27T17:37:55.931Z,93.67
2017-11-27T17:39:23.120Z,93.92
2017-11-27T17:40:46.303Z,93.97
2017-11-27T17:42:13.518Z,93.82
2017-11-27T17:43:44.855Z,93.90
2017-11-27T17:45:12.182Z,93.72
2017-11-27T17:46:39.232Z,93.66
2017-11-27T17:48:02.399Z,93.94
2017-11-27T17:49:29.655Z,94.09
2017-11-27T17:50:56.744Z,94.09
2017-11-27T17:52:24.356Z,94.08
2017-11-27T17:53:55.541Z,93.84
2017-11-27T17:55:18.866Z,94.10
2017-11-27T17:56:49.950Z,94.14
2017-11-27T17:58:13.332Z,94.05
2017-11-27T17:59:44.528Z,94.14
2017-11-27T18:01:11.796Z,94.19
2017-11-27T18:02:35.026Z,94.16
2017-11-27T18:04:02.221Z,94.10
2017-11-27T18:05:29.526Z,94.21
2017-11-27T18:06:56.423Z,94.33
2017-11-27T18:08:27.613Z,94.11
2017-11-27T18:09:50.919Z,94.32
2017-11-27T18:11:18.361Z,94.16
2017-11-27T18:12:49.649Z,94.29
2017-11-27T18:14:12.864Z,94.33
2017-11-27T18:15:43.786Z,94.39
2017-11-27T18:17:06.882Z,94.56
2017-11-27T18:18:34.045Z,94.46
2017-11-27T18:20:01.338Z,94.51
2017-11-27T18:21:32.475Z,94.57
2017-11-27T18:22:55.616Z,94.69
2017-11-27T18:24:22.882Z,94.65
2017-11-27T18:25:50.039Z,94.61
2017-11-27T18:27:17.279Z,94.64
2017-11-27T18:28:44.696Z,94.59
2017-11-27T18:30:11.990Z,94.64
2017-11-27T18:31:39.137Z,94.67
2017-11-27T18:33:06.514Z,94.48
2017-11-27T18:34:37.772Z,94.48
2017-11-27T18:36:01.108Z,94.52
2017-11-27T18:37:28.290Z,94.52
2017-11-27T18:38:55.267Z,94.53
2017-11-27T18:40:22.558Z,94.57
2017-11-27T18:41:53.807Z,94.50
2017-11-27T18:43:17.049Z,94.47